Pagina principale
METAR-TAF:

METAR-TAF

Aeroporti :

Passo Rolle, Italia

latitudine: 46-18N, longitudine: 011-47E, altezza: 2004 m

Osservazione

Il bollettino è stato emesso 57 minuti fa, alle 14:55 UTC
Vento 16 kt da nord/nord-ovest con raffiche fino a 26 kt
Temperature -2°C
Umidità 54%
Pressione 1010 hPa
Visibilità 10 km o più
Nubi sparse ad un'altezza di 4000 ft

METAR: LIVR 191455Z 33016G26KT 9999 SCT040 M02/M10 Q1010 RMK SCT MON LIB VIS MIN 9999

Ora: 16:52 (15:52 UTC)


TAF: mancante

Osservazioni e previsioni meteorologiche di più di 4000 aeroporti (messaggi METAR e TAF).

Le stazioni disponibili sono rappresentate dai dischi gialli e rossi sulla carta.

Puntare il mouse per vedere il nome della stazione.

Clicca sopra per visualizzare le osservazioni e previsioni meteorologiche.

Per cambiare la mappa : fare clic sui pulsanti verdi con una croce nera per ingrandire, il pulsante verde con un trattino per diminuire, o sulla freccia verde per le mappe adiacenti.


METAR-TAF: